createdAt,value
2023-03-11T00:00:49.717Z,98573.44
2023-03-11T00:02:55.456Z,98576.13
2023-03-11T00:04:58.031Z,98588.16
2023-03-11T00:07:00.737Z,98560.16
2023-03-11T00:09:05.208Z,98573.56
2023-03-11T00:11:07.903Z,98582.31
2023-03-11T00:13:13.425Z,98585.50
2023-03-11T00:15:16.152Z,98588.16
2023-03-11T00:17:18.832Z,98593.72
2023-03-11T00:19:21.429Z,98590.97
2023-03-11T00:21:24.057Z,98596.03
2023-03-11T00:23:27.315Z,98606.50
2023-03-11T00:25:35.905Z,98594.16
2023-03-11T00:27:39.093Z,98606.28
2023-03-11T00:29:41.745Z,98602.28
2023-03-11T00:31:44.323Z,98607.38
2023-03-11T00:33:46.936Z,98607.75
2023-03-11T00:35:50.433Z,98603.22
2023-03-11T00:37:58.672Z,98608.41
2023-03-11T00:40:01.266Z,98602.75
2023-03-11T00:42:05.732Z,98614.66
2023-03-11T00:44:08.497Z,98620.38
2023-03-11T00:46:11.145Z,98611.56
2023-03-11T00:48:14.311Z,98622.88
2023-03-11T00:50:28.954Z,98622.38
2023-03-11T00:52:31.512Z,98626.16
2023-03-11T00:54:34.115Z,98632.38
2023-03-11T00:56:36.724Z,98636.72
2023-03-11T00:58:40.878Z,98639.16
2023-03-11T01:00:43.528Z,98639.91
2023-03-11T01:02:46.618Z,98651.19
2023-03-11T01:04:54.517Z,98647.31
2023-03-11T01:06:57.101Z,98645.63
2023-03-11T01:08:59.730Z,98644.22
2023-03-11T01:11:04.011Z,98654.06
2023-03-11T01:13:06.660Z,98662.31
2023-03-11T01:15:17.837Z,98658.72
2023-03-11T01:17:22.292Z,98659.44
2023-03-11T01:19:24.832Z,98672.00
2023-03-11T01:21:27.646Z,98674.06
2023-03-11T01:23:30.369Z,98684.72
2023-03-11T01:25:32.990Z,98691.09
2023-03-11T01:27:36.274Z,98688.88
2023-03-11T01:29:38.891Z,98694.25
2023-03-11T01:31:41.624Z,98697.75
2023-03-11T01:33:44.245Z,98699.53
2023-03-11T01:35:47.241Z,98702.97
2023-03-11T01:37:49.978Z,98705.34
2023-03-11T01:39:52.672Z,98713.78
2023-03-11T01:41:56.353Z,98710.00
2023-03-11T01:43:59.080Z,98715.00
2023-03-11T01:46:02.490Z,98719.56
2023-03-11T01:48:05.500Z,98728.44
2023-03-11T01:50:12.906Z,98723.28
2023-03-11T01:52:15.582Z,98729.16
2023-03-11T01:54:35.631Z,98745.97
2023-03-11T01:56:39.926Z,98736.78
2023-03-11T01:58:47.094Z,98747.78
2023-03-11T02:00:49.814Z,98755.25
2023-03-11T02:02:54.537Z,98745.00
2023-03-11T02:04:57.734Z,98756.19
2023-03-11T02:07:01.581Z,98758.56
2023-03-11T02:09:04.408Z,98758.13
2023-03-11T02:11:10.159Z,98769.00
2023-03-11T02:13:12.779Z,98766.25
2023-03-11T02:15:15.863Z,98782.53
2023-03-11T02:17:18.490Z,98785.94
2023-03-11T02:19:55.044Z,98790.50
2023-03-11T02:21:57.982Z,98790.41
2023-03-11T02:24:37.464Z,98794.38
2023-03-11T02:26:52.310Z,98794.50
2023-03-11T02:28:56.412Z,98804.66
2023-03-11T02:30:59.382Z,98805.63
2023-03-11T02:33:02.797Z,98813.16
2023-03-11T02:35:06.847Z,98810.97
2023-03-11T02:37:12.483Z,98818.19
2023-03-11T02:39:15.244Z,98810.63
2023-03-11T02:41:17.903Z,98810.84
2023-03-11T02:43:31.455Z,98813.78
2023-03-11T02:45:34.757Z,98819.28
2023-03-11T02:47:39.615Z,98808.69
2023-03-11T02:49:42.230Z,98813.81
2023-03-11T02:51:44.813Z,98825.09
2023-03-11T02:53:55.517Z,98826.13
2023-03-11T02:55:58.063Z,98833.84
2023-03-11T02:58:00.748Z,98847.47
2023-03-11T03:00:10.915Z,98843.16
2023-03-11T03:02:13.510Z,98838.75
2023-03-11T03:04:16.156Z,98841.06
2023-03-11T03:06:19.152Z,98842.34
2023-03-11T03:08:21.733Z,98848.53
2023-03-11T03:10:24.391Z,98850.03
2023-03-11T03:12:26.969Z,98854.59
2023-03-11T03:14:29.866Z,98854.59
2023-03-11T03:16:32.553Z,98855.84
2023-03-11T03:18:35.344Z,98864.47
2023-03-11T03:20:38.113Z,98864.25
2023-03-11T03:22:42.504Z,98872.84
2023-03-11T03:24:45.192Z,98869.94
2023-03-11T03:26:47.741Z,98862.94
2023-03-11T03:28:50.369Z,98871.91
2023-03-11T03:30:53.096Z,98867.81
2023-03-11T03:32:56.376Z,98870.75
2023-03-11T03:34:59.475Z,98870.97
2023-03-11T03:37:02.170Z,98878.22
2023-03-11T03:39:05.826Z,98880.66
2023-03-11T03:41:08.655Z,98880.19
2023-03-11T03:43:11.309Z,98881.22
2023-03-11T03:45:14.078Z,98884.25
2023-03-11T03:47:16.725Z,98884.38
2023-03-11T03:49:19.377Z,98882.50
2023-03-11T03:51:22.009Z,98875.31
2023-03-11T03:53:24.648Z,98884.38
2023-03-11T03:55:27.276Z,98883.78
2023-03-11T03:57:30.533Z,98888.44
2023-03-11T03:59:33.152Z,98887.53
2023-03-11T04:01:35.761Z,98880.88
2023-03-11T04:03:39.658Z,98893.91
2023-03-11T04:05:42.319Z,98896.84
2023-03-11T04:07:44.880Z,98903.00
2023-03-11T04:09:47.546Z,98909.06
2023-03-11T04:11:50.140Z,98915.91
2023-03-11T04:13:52.729Z,98906.97
2023-03-11T04:15:55.296Z,98923.25
2023-03-11T04:17:57.928Z,98937.59
2023-03-11T04:20:00.585Z,98934.66
2023-03-11T04:22:03.213Z,98937.69
2023-03-11T04:24:06.363Z,98940.13
2023-03-11T04:26:08.986Z,98943.16
2023-03-11T04:28:11.581Z,98944.78
2023-03-11T04:30:14.283Z,98950.97
2023-03-11T04:32:16.985Z,98956.88
2023-03-11T04:34:19.759Z,98958.31
2023-03-11T04:36:22.311Z,98962.97
2023-03-11T04:38:25.301Z,98956.06
2023-03-11T04:40:28.565Z,98967.16
2023-03-11T04:42:31.307Z,98969.47
2023-03-11T04:44:36.074Z,98969.13
2023-03-11T04:46:39.094Z,98975.06
2023-03-11T04:48:42.402Z,98977.75
2023-03-11T04:50:45.011Z,98979.38
2023-03-11T04:52:48.085Z,98975.88
2023-03-11T04:54:53.167Z,98983.81
2023-03-11T04:56:57.695Z,98992.97
2023-03-11T04:59:01.029Z,98999.72
2023-03-11T05:01:03.779Z,98998.22
2023-03-11T05:03:06.349Z,99003.13
2023-03-11T05:05:10.109Z,99004.63
2023-03-11T05:07:12.823Z,99012.66
2023-03-11T05:09:15.411Z,99018.13
2023-03-11T05:11:18.008Z,99020.41
2023-03-11T05:13:21.501Z,99010.53
2023-03-11T05:15:24.123Z,99017.28
2023-03-11T05:17:26.705Z,99012.81
2023-03-11T05:19:32.756Z,99022.03
2023-03-11T05:21:35.495Z,99030.31
2023-03-11T05:23:38.082Z,99028.44
2023-03-11T05:25:40.902Z,99033.53
2023-03-11T05:27:43.630Z,99033.75
2023-03-11T05:29:46.888Z,99032.88
2023-03-11T05:31:49.659Z,99040.09
2023-03-11T05:33:52.259Z,99045.44
2023-03-11T05:35:54.905Z,99042.53
2023-03-11T05:37:57.664Z,99041.69
2023-03-11T05:40:00.203Z,99052.69
2023-03-11T05:42:02.850Z,99052.28
2023-03-11T05:44:05.701Z,99057.50
2023-03-11T05:46:08.426Z,99060.78
2023-03-11T05:48:11.045Z,99066.69
2023-03-11T05:50:13.675Z,99068.13
2023-03-11T05:52:16.924Z,99069.22
2023-03-11T05:54:19.723Z,99074.34
2023-03-11T05:56:23.749Z,99076.28
2023-03-11T05:58:27.673Z,99076.50
2023-03-11T06:00:30.788Z,99074.31
2023-03-11T06:02:34.626Z,99075.94
2023-03-11T06:04:37.982Z,99088.22
2023-03-11T06:06:44.160Z,99084.41
2023-03-11T06:08:49.996Z,99078.59
2023-03-11T06:10:52.695Z,99083.19
2023-03-11T06:12:55.331Z,99069.91
2023-03-11T06:14:57.894Z,99086.84
2023-03-11T06:17:00.627Z,99086.50
2023-03-11T06:19:03.378Z,99082.41
2023-03-11T06:21:06.162Z,99085.50
2023-03-11T06:23:10.101Z,99096.84
2023-03-11T06:25:13.036Z,99083.81
2023-03-11T06:27:15.664Z,99093.09
2023-03-11T06:29:18.494Z,99092.69
2023-03-11T06:31:25.476Z,99098.91
2023-03-11T06:33:28.156Z,99100.69
2023-03-11T06:35:30.817Z,99108.84
2023-03-11T06:37:37.258Z,99117.56
2023-03-11T06:39:39.840Z,99116.03
2023-03-11T06:41:43.343Z,99117.16
2023-03-11T06:43:46.478Z,99111.63
2023-03-11T06:45:49.161Z,99111.78
2023-03-11T06:47:51.987Z,99112.41
2023-03-11T06:49:54.861Z,99112.56
2023-03-11T06:51:57.423Z,99117.19
2023-03-11T06:54:00.140Z,99118.03
2023-03-11T06:56:09.214Z,99121.09
2023-03-11T06:58:11.735Z,99124.53
2023-03-11T07:00:15.410Z,99130.47
2023-03-11T07:02:18.028Z,99128.94
2023-03-11T07:04:21.359Z,99140.09
2023-03-11T07:06:26.364Z,99124.41
2023-03-11T07:08:29.435Z,99133.88
2023-03-11T07:10:32.098Z,99126.53
2023-03-11T07:12:34.691Z,99139.16
2023-03-11T07:14:37.250Z,99137.19
2023-03-11T07:16:40.598Z,99149.63
2023-03-11T07:18:45.236Z,99150.59
2023-03-11T07:20:48.209Z,99148.75
2023-03-11T07:22:51.281Z,99151.59
2023-03-11T07:24:53.873Z,99154.59
2023-03-11T07:26:56.652Z,99159.63
2023-03-11T07:28:59.715Z,99160.72
2023-03-11T07:31:15.560Z,99162.38
2023-03-11T07:33:18.699Z,99161.81
2023-03-11T07:35:21.921Z,99162.50
2023-03-11T07:37:24.461Z,99166.97
2023-03-11T07:39:28.433Z,99171.13
2023-03-11T07:41:33.473Z,99167.44
2023-03-11T07:43:36.486Z,99164.63
2023-03-11T07:45:39.500Z,99165.88
2023-03-11T07:47:42.366Z,99165.34
2023-03-11T07:49:45.465Z,99170.19
2023-03-11T07:51:48.111Z,99181.72
2023-03-11T07:53:53.546Z,99176.00
2023-03-11T07:56:00.092Z,99189.88
2023-03-11T07:58:02.670Z,99186.97
2023-03-11T08:00:06.451Z,99192.78
2023-03-11T08:02:10.979Z,99195.94
2023-03-11T08:04:17.208Z,99186.47
2023-03-11T08:06:22.505Z,99190.88
2023-03-11T08:08:25.386Z,99198.97
2023-03-11T08:10:28.044Z,99191.34
2023-03-11T08:12:30.677Z,99194.31
2023-03-11T08:14:33.553Z,99196.03
2023-03-11T08:16:36.214Z,99202.16
2023-03-11T08:18:38.815Z,99196.97
2023-03-11T08:20:41.809Z,99200.22
2023-03-11T08:22:57.245Z,99206.22
2023-03-11T08:25:01.200Z,99209.38
2023-03-11T08:27:04.349Z,99210.78
2023-03-11T08:29:07.193Z,99214.44
2023-03-11T08:31:27.145Z,99216.66
2023-03-11T08:33:29.903Z,99217.72
2023-03-11T08:35:33.146Z,99217.56
2023-03-11T08:37:36.087Z,99212.50
2023-03-11T08:39:39.030Z,99220.44
2023-03-11T08:41:41.736Z,99224.13
2023-03-11T08:43:45.569Z,99228.22
2023-03-11T08:45:48.851Z,99237.06
2023-03-11T08:47:51.457Z,99239.06
2023-03-11T08:49:54.338Z,99226.47
2023-03-11T08:51:57.456Z,99233.56
2023-03-11T08:54:01.117Z,99237.94
2023-03-11T08:56:04.079Z,99232.56
2023-03-11T08:58:07.793Z,99240.72
2023-03-11T09:00:13.314Z,99237.72
2023-03-11T09:02:16.170Z,99236.94
2023-03-11T09:04:18.777Z,99238.34
2023-03-11T09:06:22.146Z,99247.81
2023-03-11T09:08:24.942Z,99235.66
2023-03-11T09:10:27.561Z,99239.44
2023-03-11T09:12:30.566Z,99236.47
2023-03-11T09:14:33.183Z,99242.19
2023-03-11T09:16:35.959Z,99235.41
2023-03-11T09:18:38.647Z,99243.81
2023-03-11T09:20:42.944Z,99241.38
2023-03-11T09:22:45.982Z,99240.31
2023-03-11T09:24:48.611Z,99238.13
2023-03-11T09:26:51.242Z,99244.63
2023-03-11T09:28:53.829Z,99231.06
2023-03-11T09:30:57.454Z,99235.97
2023-03-11T09:33:00.233Z,99245.16
2023-03-11T09:35:03.144Z,99240.84
2023-03-11T09:37:05.853Z,99247.06
2023-03-11T09:39:09.033Z,99249.22
2023-03-11T09:41:17.723Z,99259.53
2023-03-11T09:43:26.020Z,99251.69
2023-03-11T09:45:30.911Z,99250.59
2023-03-11T09:47:46.284Z,99256.25
2023-03-11T09:50:08.600Z,99247.25
2023-03-11T09:52:16.290Z,99249.66
2023-03-11T09:54:18.935Z,99251.25
2023-03-11T09:56:22.772Z,99250.97
2023-03-11T09:58:31.400Z,99256.38
2023-03-11T10:00:34.349Z,99263.44
2023-03-11T10:02:38.309Z,99260.19
2023-03-11T10:04:49.545Z,99259.72
2023-03-11T10:06:52.128Z,99257.78
2023-03-11T10:09:33.486Z,99263.50
2023-03-11T10:11:57.256Z,99260.56
2023-03-11T10:14:06.131Z,99264.34
2023-03-11T10:16:46.164Z,99265.94
2023-03-11T10:18:54.665Z,99268.09
2023-03-11T10:21:25.755Z,99269.41
2023-03-11T10:23:59.318Z,99271.06
2023-03-11T10:26:17.563Z,99270.41
2023-03-11T10:28:24.872Z,99274.47
2023-03-11T10:30:53.431Z,99276.06
2023-03-11T10:33:01.582Z,99270.53
2023-03-11T10:35:44.841Z,99271.03
2023-03-11T10:38:19.383Z,99268.28
2023-03-11T10:40:32.205Z,99264.50
2023-03-11T10:42:36.317Z,99277.25
2023-03-11T10:44:41.516Z,99273.38
2023-03-11T10:46:45.301Z,99274.97
2023-03-11T10:48:47.897Z,99272.50
2023-03-11T10:51:03.313Z,99276.47
2023-03-11T10:53:13.864Z,99281.59
2023-03-11T10:55:20.132Z,99282.06
2023-03-11T10:57:22.701Z,99287.50
2023-03-11T10:59:34.267Z,99286.97
2023-03-11T11:01:37.777Z,99286.38
2023-03-11T11:03:49.421Z,99290.13
2023-03-11T11:06:05.607Z,99295.88
2023-03-11T11:08:17.297Z,99295.63
2023-03-11T11:10:28.472Z,99299.56
2023-03-11T11:12:31.477Z,99288.31
2023-03-11T11:14:49.336Z,99296.31
2023-03-11T11:16:53.163Z,99295.16
2023-03-11T11:19:08.206Z,99293.78
2023-03-11T11:21:32.885Z,99294.53
2023-03-11T11:24:21.213Z,99302.28
2023-03-11T11:26:27.262Z,99305.84
2023-03-11T11:28:31.546Z,99299.69
2023-03-11T11:30:34.226Z,99307.41
2023-03-11T11:32:38.197Z,99290.44
2023-03-11T11:34:41.615Z,99313.38
2023-03-11T11:36:45.031Z,99310.13
2023-03-11T11:38:47.909Z,99311.31
2023-03-11T11:40:51.897Z,99310.22
2023-03-11T11:42:57.215Z,99308.56
2023-03-11T11:45:05.976Z,99310.03
2023-03-11T11:47:20.467Z,99299.94
2023-03-11T11:49:27.781Z,99306.81
2023-03-11T11:51:35.742Z,99307.72
2023-03-11T11:53:44.443Z,99303.75
2023-03-11T11:55:52.908Z,99304.91
2023-03-11T11:57:55.683Z,99296.91
2023-03-11T11:59:58.444Z,99302.78
2023-03-11T12:02:18.681Z,99304.41
2023-03-11T12:05:00.753Z,99305.53
2023-03-11T12:07:32.592Z,99310.75
2023-03-11T12:10:09.799Z,99310.53
2023-03-11T12:12:39.782Z,99314.69
2023-03-11T12:14:42.255Z,99309.66
2023-03-11T12:16:50.562Z,99315.50
2023-03-11T12:19:11.470Z,99315.78
2023-03-11T12:21:39.429Z,99318.53
2023-03-11T12:24:00.624Z,99317.25
2023-03-11T12:26:25.982Z,99324.59
2023-03-11T12:29:19.868Z,99318.56
2023-03-11T12:31:27.107Z,99318.66
2023-03-11T12:33:54.114Z,99325.75
2023-03-11T12:35:59.298Z,99312.03
2023-03-11T12:38:01.872Z,99304.50
2023-03-11T12:40:43.051Z,99312.97
2023-03-11T12:42:46.288Z,99313.19
2023-03-11T12:44:49.976Z,99317.19
2023-03-11T12:47:00.836Z,99320.84
2023-03-11T12:49:13.447Z,99317.84
2023-03-11T12:51:39.486Z,99328.13
2023-03-11T12:53:49.000Z,99323.19
2023-03-11T12:56:10.260Z,99327.34
2023-03-11T12:58:48.472Z,99325.00
2023-03-11T13:01:11.156Z,99324.59
2023-03-11T13:03:17.557Z,99312.28
2023-03-11T13:05:54.083Z,99320.91
2023-03-11T13:08:10.394Z,99327.16
2023-03-11T13:10:27.522Z,99315.44
2023-03-11T13:12:50.935Z,99322.19
2023-03-11T13:15:21.365Z,99323.91
2023-03-11T13:17:26.148Z,99317.69
2023-03-11T13:19:34.651Z,99321.41
2023-03-11T13:21:41.446Z,99318.72
2023-03-11T13:23:44.172Z,99319.63
2023-03-11T13:25:52.947Z,99325.00
2023-03-11T13:28:16.995Z,99324.03
2023-03-11T13:30:25.085Z,99327.19
2023-03-11T13:32:42.908Z,99332.22
2023-03-11T13:35:00.509Z,99333.38
2023-03-11T13:37:30.315Z,99332.91
2023-03-11T13:39:57.887Z,99332.66
2023-03-11T13:42:00.787Z,99338.94
2023-03-11T13:44:30.445Z,99329.44
2023-03-11T13:46:39.734Z,99328.66
2023-03-11T13:48:48.508Z,99319.41
2023-03-11T13:50:57.120Z,99326.44
2023-03-11T13:53:03.949Z,99324.84
2023-03-11T13:55:16.116Z,99341.91
2023-03-11T13:57:31.838Z,99341.06
2023-03-11T13:59:35.416Z,99344.56
2023-03-11T14:01:38.012Z,99344.00
2023-03-11T14:03:46.003Z,99346.94
2023-03-11T14:05:57.331Z,99345.84
2023-03-11T14:08:33.154Z,99342.00
2023-03-11T14:10:35.900Z,99342.28
2023-03-11T14:12:39.247Z,99352.00
2023-03-11T14:14:49.382Z,99353.03
2023-03-11T14:16:52.517Z,99353.84
2023-03-11T14:19:13.808Z,99352.47
2023-03-11T14:21:19.308Z,99357.81
2023-03-11T14:23:29.740Z,99360.19
2023-03-11T14:25:36.511Z,99357.69
2023-03-11T14:27:39.765Z,99353.25
2023-03-11T14:29:45.491Z,99366.22
2023-03-11T14:31:48.344Z,99358.84
2023-03-11T14:33:58.761Z,99352.53
2023-03-11T14:36:11.772Z,99351.09
2023-03-11T14:38:26.431Z,99359.66
2023-03-11T14:40:32.476Z,99351.81
2023-03-11T14:42:40.448Z,99355.00
2023-03-11T14:44:45.433Z,99354.72
2023-03-11T14:46:50.012Z,99363.25
2023-03-11T14:48:54.833Z,99362.66
2023-03-11T14:51:00.665Z,99364.97
2023-03-11T14:53:18.100Z,99369.63
2023-03-11T14:55:25.310Z,99367.44
2023-03-11T14:57:27.825Z,99369.00
2023-03-11T14:59:33.972Z,99354.28
2023-03-11T15:01:41.426Z,99365.59
2023-03-11T15:03:59.750Z,99370.13
2023-03-11T15:06:09.054Z,99380.84
2023-03-11T15:08:11.864Z,99382.44
2023-03-11T15:10:14.901Z,99378.38
2023-03-11T15:12:36.387Z,99383.69
2023-03-11T15:14:50.595Z,99385.84
2023-03-11T15:16:55.247Z,99391.41
2023-03-11T15:19:21.094Z,99391.34
2023-03-11T15:21:25.270Z,99396.88
2023-03-11T15:23:27.845Z,99395.38
2023-03-11T15:25:34.366Z,99391.00
2023-03-11T15:27:39.076Z,99395.50
2023-03-11T15:29:52.807Z,99392.00
2023-03-11T15:31:57.330Z,99391.41
2023-03-11T15:34:11.906Z,99395.59
2023-03-11T15:36:39.584Z,99391.00
2023-03-11T15:38:42.400Z,99400.25
2023-03-11T15:40:57.902Z,99398.19
2023-03-11T15:43:15.613Z,99406.72
2023-03-11T15:45:20.771Z,99394.72
2023-03-11T15:47:23.843Z,99384.53
2023-03-11T15:49:28.357Z,99403.06
2023-03-11T15:51:30.939Z,99401.91
2023-03-11T15:53:33.532Z,99400.28
2023-03-11T15:55:37.451Z,99402.47
2023-03-11T15:57:40.564Z,99400.88
2023-03-11T15:59:43.684Z,99406.56
2023-03-11T16:01:47.376Z,99411.38
2023-03-11T16:03:50.170Z,99403.13
2023-03-11T16:05:52.950Z,99403.22
2023-03-11T16:07:55.540Z,99404.44
2023-03-11T16:09:58.281Z,99409.25
2023-03-11T16:12:02.171Z,99414.06
2023-03-11T16:14:06.216Z,99398.09
2023-03-11T16:16:16.503Z,99405.84
2023-03-11T16:18:19.567Z,99403.16
2023-03-11T16:20:24.703Z,99402.91
2023-03-11T16:22:36.693Z,99403.16
2023-03-11T16:24:39.329Z,99411.88
2023-03-11T16:26:41.914Z,99408.03
2023-03-11T16:28:44.519Z,99413.09
2023-03-11T16:30:50.552Z,99413.00
2023-03-11T16:32:53.300Z,99418.38
2023-03-11T16:34:56.042Z,99417.25
2023-03-11T16:36:58.665Z,99427.69
2023-03-11T16:39:03.360Z,99426.38
2023-03-11T16:41:06.242Z,99421.00
2023-03-11T16:43:12.866Z,99425.78
2023-03-11T16:45:17.623Z,99424.31
2023-03-11T16:47:20.216Z,99417.78
2023-03-11T16:49:22.858Z,99422.03
2023-03-11T16:51:25.455Z,99422.03
2023-03-11T16:53:28.070Z,99419.34
2023-03-11T16:55:30.875Z,99420.38
2023-03-11T16:57:33.579Z,99412.44
2023-03-11T16:59:36.105Z,99404.06
2023-03-11T17:01:39.312Z,99414.25
2023-03-11T17:03:43.633Z,99412.84
2023-03-11T17:05:46.750Z,99408.84
2023-03-11T17:08:00.183Z,99406.66
2023-03-11T17:10:03.850Z,99411.19
2023-03-11T17:12:07.106Z,99411.38
2023-03-11T17:14:16.377Z,99413.47
2023-03-11T17:16:19.796Z,99411.81
2023-03-11T17:18:22.381Z,99416.53
2023-03-11T17:20:25.214Z,99426.13
2023-03-11T17:22:28.067Z,99418.81
2023-03-11T17:24:32.882Z,99428.28
2023-03-11T17:26:35.555Z,99424.19
2023-03-11T17:28:40.210Z,99429.56
2023-03-11T17:30:44.518Z,99425.72
2023-03-11T17:32:47.562Z,99424.50
2023-03-11T17:34:50.366Z,99423.22
2023-03-11T17:36:53.220Z,99430.38
2023-03-11T17:38:56.016Z,99429.22
2023-03-11T17:40:58.681Z,99432.63
2023-03-11T17:43:01.596Z,99445.13
2023-03-11T17:45:04.379Z,99439.25
2023-03-11T17:47:07.155Z,99441.72
2023-03-11T17:49:14.457Z,99439.38
2023-03-11T17:51:19.695Z,99445.47
2023-03-11T17:53:22.285Z,99438.38
2023-03-11T17:55:25.004Z,99435.22
2023-03-11T17:57:27.711Z,99430.88
2023-03-11T17:59:31.595Z,99439.50
2023-03-11T18:01:34.282Z,99441.47
2023-03-11T18:03:37.007Z,99447.56
2023-03-11T18:05:39.852Z,99432.50
2023-03-11T18:07:42.567Z,99445.72
2023-03-11T18:09:45.496Z,99440.34
2023-03-11T18:11:48.137Z,99443.03
2023-03-11T18:13:51.960Z,99435.31
2023-03-11T18:15:59.709Z,99433.31
2023-03-11T18:18:02.321Z,99434.47
2023-03-11T18:20:05.733Z,99443.44
2023-03-11T18:22:08.361Z,99441.00
2023-03-11T18:24:11.182Z,99428.59
2023-03-11T18:26:16.991Z,99438.06
2023-03-11T18:28:20.006Z,99443.09
2023-03-11T18:30:22.774Z,99445.63
2023-03-11T18:32:25.504Z,99441.53
2023-03-11T18:34:28.118Z,99443.66
2023-03-11T18:36:33.722Z,99434.53
2023-03-11T18:38:36.352Z,99437.44
2023-03-11T18:40:38.994Z,99434.03
2023-03-11T18:42:41.672Z,99438.97
2023-03-11T18:44:44.405Z,99427.34
2023-03-11T18:46:47.233Z,99438.13
2023-03-11T18:48:50.702Z,99426.81
2023-03-11T18:50:54.527Z,99427.25
2023-03-11T18:52:57.212Z,99417.22
2023-03-11T18:54:59.773Z,99414.28
2023-03-11T18:57:02.366Z,99420.47
2023-03-11T18:59:05.034Z,99424.81
2023-03-11T19:01:16.287Z,99418.06
2023-03-11T19:03:19.081Z,99413.81
2023-03-11T19:05:22.014Z,99403.13
2023-03-11T19:07:24.745Z,99397.88
2023-03-11T19:09:27.511Z,99399.84
2023-03-11T19:11:30.280Z,99399.84
2023-03-11T19:13:45.879Z,99395.16
2023-03-11T19:15:49.266Z,99400.78
2023-03-11T19:18:04.321Z,99386.88
2023-03-11T19:20:10.254Z,99375.81
2023-03-11T19:22:12.878Z,99405.59
2023-03-11T19:24:15.504Z,99389.84
2023-03-11T19:26:18.162Z,99393.34
2023-03-11T19:28:22.010Z,99389.41
2023-03-11T19:30:25.150Z,99390.34
2023-03-11T19:32:28.423Z,99396.44
2023-03-11T19:34:31.269Z,99387.06
2023-03-11T19:36:33.863Z,99391.06
2023-03-11T19:38:36.688Z,99385.91
2023-03-11T19:40:39.984Z,99378.19
2023-03-11T19:42:42.666Z,99383.22
2023-03-11T19:44:45.339Z,99380.97
2023-03-11T19:46:48.059Z,99391.06
2023-03-11T19:48:51.220Z,99375.00
2023-03-11T19:50:54.262Z,99392.00
2023-03-11T19:52:56.858Z,99390.34
2023-03-11T19:54:59.530Z,99377.47
2023-03-11T19:57:02.312Z,99371.94
2023-03-11T19:59:04.885Z,99362.50
2023-03-11T20:01:07.492Z,99368.03
2023-03-11T20:03:12.160Z,99370.50
2023-03-11T20:05:14.819Z,99372.13
2023-03-11T20:07:17.738Z,99363.25
2023-03-11T20:09:21.112Z,99355.25
2023-03-11T20:11:23.704Z,99366.91
2023-03-11T20:13:26.332Z,99375.81
2023-03-11T20:15:32.593Z,99374.41
2023-03-11T20:17:36.224Z,99368.31
2023-03-11T20:19:38.882Z,99363.25
2023-03-11T20:21:42.850Z,99370.50
2023-03-11T20:23:46.570Z,99360.25
2023-03-11T20:25:49.319Z,99355.56
2023-03-11T20:27:53.957Z,99350.91
2023-03-11T20:29:56.829Z,99350.06
2023-03-11T20:31:59.552Z,99348.22
2023-03-11T20:34:03.801Z,99331.81
2023-03-11T20:36:09.114Z,99324.47
2023-03-11T20:38:13.146Z,99332.09
2023-03-11T20:40:17.605Z,99328.56
2023-03-11T20:42:21.947Z,99312.00
2023-03-11T20:44:24.693Z,99318.50
2023-03-11T20:46:27.358Z,99315.28
2023-03-11T20:48:30.619Z,99313.63
2023-03-11T20:50:33.382Z,99311.06
2023-03-11T20:52:36.019Z,99312.47
2023-03-11T20:54:38.997Z,99313.03
2023-03-11T20:56:42.341Z,99328.16
2023-03-11T20:58:45.973Z,99314.78
2023-03-11T21:00:48.582Z,99311.75
2023-03-11T21:02:51.273Z,99316.88
2023-03-11T21:04:54.042Z,99311.00
2023-03-11T21:06:57.652Z,99313.63
2023-03-11T21:09:03.129Z,99310.69
2023-03-11T21:11:05.744Z,99319.00
2023-03-11T21:13:08.645Z,99299.50
2023-03-11T21:15:11.826Z,99310.34
2023-03-11T21:17:14.553Z,99307.44
2023-03-11T21:19:17.268Z,99309.41
2023-03-11T21:21:21.045Z,99307.53
2023-03-11T21:23:24.198Z,99294.22
2023-03-11T21:25:27.125Z,99300.16
2023-03-11T21:27:31.001Z,99301.38
2023-03-11T21:29:33.767Z,99308.72
2023-03-11T21:31:36.592Z,99305.22
2023-03-11T21:33:40.186Z,99297.88
2023-03-11T21:35:43.212Z,99295.19
2023-03-11T21:37:46.709Z,99304.97
2023-03-11T21:39:49.597Z,99305.31
2023-03-11T21:41:54.681Z,99301.16
2023-03-11T21:43:58.013Z,99296.59
2023-03-11T21:46:01.228Z,99296.25
2023-03-11T21:48:06.874Z,99295.25
2023-03-11T21:50:10.333Z,99289.88
2023-03-11T21:52:13.241Z,99283.41
2023-03-11T21:54:16.173Z,99291.94
2023-03-11T21:56:19.942Z,99289.31
2023-03-11T21:58:23.248Z,99285.69
2023-03-11T22:00:26.131Z,99283.72
2023-03-11T22:02:28.950Z,99280.84
2023-03-11T22:04:32.140Z,99284.94
2023-03-11T22:06:35.152Z,99284.09
2023-03-11T22:08:38.201Z,99269.13
2023-03-11T22:10:42.303Z,99270.59
2023-03-11T22:12:45.641Z,99270.59
2023-03-11T22:14:48.368Z,99261.97
2023-03-11T22:16:51.683Z,99258.34
2023-03-11T22:18:54.689Z,99262.13
2023-03-11T22:21:00.629Z,99257.19
2023-03-11T22:23:03.863Z,99253.94
2023-03-11T22:25:06.972Z,99271.09
2023-03-11T22:27:09.662Z,99264.88
2023-03-11T22:29:13.645Z,99256.31
2023-03-11T22:31:18.741Z,99242.78
2023-03-11T22:33:21.541Z,99236.44
2023-03-11T22:35:25.868Z,99243.53
2023-03-11T22:37:29.410Z,99231.13
2023-03-11T22:39:32.503Z,99232.66
2023-03-11T22:41:35.356Z,99232.59
2023-03-11T22:43:38.897Z,99235.28
2023-03-11T22:45:41.942Z,99241.41
2023-03-11T22:47:44.549Z,99226.63
2023-03-11T22:49:47.397Z,99218.63
2023-03-11T22:51:50.077Z,99239.34
2023-03-11T22:53:52.620Z,99244.97
2023-03-11T22:55:55.290Z,99242.28
2023-03-11T22:57:58.004Z,99238.78
2023-03-11T23:00:00.654Z,99232.66
2023-03-11T23:02:03.363Z,99223.22
2023-03-11T23:04:06.056Z,99232.94
2023-03-11T23:06:11.191Z,99234.47
2023-03-11T23:08:16.505Z,99235.72
2023-03-11T23:10:21.388Z,99221.75
2023-03-11T23:12:24.209Z,99218.72
2023-03-11T23:14:37.873Z,99213.84
2023-03-11T23:16:45.576Z,99223.22
2023-03-11T23:18:51.519Z,99217.09
2023-03-11T23:20:54.070Z,99178.44
2023-03-11T23:22:56.728Z,99217.41
2023-03-11T23:25:02.323Z,99211.97
2023-03-11T23:27:05.668Z,99205.13
2023-03-11T23:29:08.308Z,99211.97
2023-03-11T23:31:13.060Z,99208.22
2023-03-11T23:33:15.742Z,99219.88
2023-03-11T23:35:18.670Z,99211.06
2023-03-11T23:37:21.348Z,99214.56
2023-03-11T23:39:23.999Z,99215.06
2023-03-11T23:41:26.755Z,99211.97
2023-03-11T23:43:29.299Z,99209.59
2023-03-11T23:45:31.931Z,99206.09
2023-03-11T23:47:34.599Z,99206.34
2023-03-11T23:49:37.182Z,99209.84
2023-03-11T23:51:41.082Z,99204.97
2023-03-11T23:53:43.816Z,99187.72
2023-03-11T23:55:46.675Z,99186.44
2023-03-11T23:57:49.292Z,99186.19
2023-03-11T23:59:51.945Z,99161.00
